sensor_id;sensor_type;location;lat;lon;timestamp;temperature;humidity
8261;DHT22;64115;50.170;8.242;2023-11-21T00:00:45;7.20;99.90
8261;DHT22;64115;50.170;8.242;2023-11-21T00:03:12;7.20;99.90
8261;DHT22;64115;50.170;8.242;2023-11-21T00:05:40;7.20;99.90
8261;DHT22;64115;50.170;8.242;2023-11-21T00:08:07;7.10;99.90
8261;DHT22;64115;50.170;8.242;2023-11-21T00:10:35;7.10;99.90
8261;DHT22;64115;50.170;8.242;2023-11-21T00:13:03;7.00;99.90
8261;DHT22;64115;50.170;8.242;2023-11-21T00:15:30;7.10;99.90
8261;DHT22;64115;50.170;8.242;2023-11-21T00:17:58;7.10;99.90
8261;DHT22;64115;50.170;8.242;2023-11-21T00:20:25;7.10;99.90
8261;DHT22;64115;50.170;8.242;2023-11-21T00:22:52;7.00;99.90
8261;DHT22;64115;50.170;8.242;2023-11-21T00:25:18;7.00;99.90
8261;DHT22;64115;50.170;8.242;2023-11-21T00:27:45;7.00;99.90
8261;DHT22;64115;50.170;8.242;2023-11-21T00:30:13;6.90;99.90
8261;DHT22;64115;50.170;8.242;2023-11-21T00:32:40;6.90;99.90
8261;DHT22;64115;50.170;8.242;2023-11-21T00:35:09;6.90;99.90
8261;DHT22;64115;50.170;8.242;2023-11-21T00:37:35;6.90;99.90
8261;DHT22;64115;50.170;8.242;2023-11-21T00:40:05;6.90;99.90
8261;DHT22;64115;50.170;8.242;2023-11-21T00:42:33;6.90;99.90
8261;DHT22;64115;50.170;8.242;2023-11-21T00:45:00;6.90;99.90
8261;DHT22;64115;50.170;8.242;2023-11-21T00:47:26;6.90;99.90
8261;DHT22;64115;50.170;8.242;2023-11-21T00:49:53;6.80;99.90
8261;DHT22;64115;50.170;8.242;2023-11-21T00:52:21;6.90;99.90
8261;DHT22;64115;50.170;8.242;2023-11-21T00:54:48;6.90;99.90
8261;DHT22;64115;50.170;8.242;2023-11-21T00:57:15;6.80;99.90
8261;DHT22;64115;50.170;8.242;2023-11-21T00:59:41;6.80;99.90
8261;DHT22;64115;50.170;8.242;2023-11-21T01:02:08;6.80;99.90
8261;DHT22;64115;50.170;8.242;2023-11-21T01:04:36;6.80;99.90
8261;DHT22;64115;50.170;8.242;2023-11-21T01:07:03;6.80;99.90
8261;DHT22;64115;50.170;8.242;2023-11-21T01:09:32;6.70;99.90
8261;DHT22;64115;50.170;8.242;2023-11-21T01:11:59;6.70;99.90
8261;DHT22;64115;50.170;8.242;2023-11-21T01:14:26;6.70;99.90
8261;DHT22;64115;50.170;8.242;2023-11-21T01:16:53;6.70;99.90
8261;DHT22;64115;50.170;8.242;2023-11-21T01:19:20;6.80;99.90
8261;DHT22;64115;50.170;8.242;2023-11-21T01:21:46;6.80;99.90
8261;DHT22;64115;50.170;8.242;2023-11-21T01:24:13;6.80;99.90
8261;DHT22;64115;50.170;8.242;2023-11-21T01:26:41;6.80;99.90
8261;DHT22;64115;50.170;8.242;2023-11-21T01:29:08;6.80;99.90
8261;DHT22;64115;50.170;8.242;2023-11-21T01:31:36;6.80;99.90
8261;DHT22;64115;50.170;8.242;2023-11-21T01:34:03;6.80;99.90
8261;DHT22;64115;50.170;8.242;2023-11-21T01:36:30;6.80;99.90
8261;DHT22;64115;50.170;8.242;2023-11-21T01:38:58;6.80;99.90
8261;DHT22;64115;50.170;8.242;2023-11-21T01:41:25;6.80;99.90
8261;DHT22;64115;50.170;8.242;2023-11-21T01:43:55;6.80;99.90
8261;DHT22;64115;50.170;8.242;2023-11-21T01:46:24;6.80;99.90
8261;DHT22;64115;50.170;8.242;2023-11-21T01:48:52;6.80;99.90
8261;DHT22;64115;50.170;8.242;2023-11-21T01:51:19;6.90;99.90
8261;DHT22;64115;50.170;8.242;2023-11-21T01:53:46;6.90;99.90
8261;DHT22;64115;50.170;8.242;2023-11-21T01:56:13;6.90;99.90
8261;DHT22;64115;50.170;8.242;2023-11-21T01:58:41;6.90;99.90
8261;DHT22;64115;50.170;8.242;2023-11-21T02:01:08;6.90;99.90
8261;DHT22;64115;50.170;8.242;2023-11-21T02:03:35;6.90;99.90
8261;DHT22;64115;50.170;8.242;2023-11-21T02:06:02;6.90;99.90
8261;DHT22;64115;50.170;8.242;2023-11-21T02:08:29;6.80;99.90
8261;DHT22;64115;50.170;8.242;2023-11-21T02:10:57;6.80;99.90
8261;DHT22;64115;50.170;8.242;2023-11-21T02:13:24;6.80;99.90
8261;DHT22;64115;50.170;8.242;2023-11-21T02:15:50;6.80;99.90
8261;DHT22;64115;50.170;8.242;2023-11-21T02:18:21;6.90;99.90
8261;DHT22;64115;50.170;8.242;2023-11-21T02:20:48;6.90;99.90
8261;DHT22;64115;50.170;8.242;2023-11-21T02:23:16;6.90;99.90
8261;DHT22;64115;50.170;8.242;2023-11-21T02:25:43;6.90;99.90
8261;DHT22;64115;50.170;8.242;2023-11-21T02:28:10;6.90;99.90
8261;DHT22;64115;50.170;8.242;2023-11-21T02:30:38;6.90;99.90
8261;DHT22;64115;50.170;8.242;2023-11-21T02:33:05;7.00;99.90
8261;DHT22;64115;50.170;8.242;2023-11-21T02:35:32;7.00;99.90
8261;DHT22;64115;50.170;8.242;2023-11-21T02:38:00;7.00;99.90
8261;DHT22;64115;50.170;8.242;2023-11-21T02:40:28;6.90;99.90
8261;DHT22;64115;50.170;8.242;2023-11-21T02:42:55;6.90;99.90
8261;DHT22;64115;50.170;8.242;2023-11-21T02:45:24;6.90;99.90
8261;DHT22;64115;50.170;8.242;2023-11-21T02:47:51;6.80;99.90
8261;DHT22;64115;50.170;8.242;2023-11-21T02:50:22;6.80;99.90
8261;DHT22;64115;50.170;8.242;2023-11-21T02:52:49;6.70;99.90
8261;DHT22;64115;50.170;8.242;2023-11-21T02:55:15;6.70;99.90
8261;DHT22;64115;50.170;8.242;2023-11-21T02:57:44;6.60;99.90
8261;DHT22;64115;50.170;8.242;2023-11-21T03:00:11;6.70;99.90
8261;DHT22;64115;50.170;8.242;2023-11-21T03:02:40;6.80;99.90
8261;DHT22;64115;50.170;8.242;2023-11-21T03:05:08;6.80;99.90
8261;DHT22;64115;50.170;8.242;2023-11-21T03:07:36;6.90;99.90
8261;DHT22;64115;50.170;8.242;2023-11-21T03:10:03;6.90;99.90
8261;DHT22;64115;50.170;8.242;2023-11-21T03:12:30;6.90;99.90
8261;DHT22;64115;50.170;8.242;2023-11-21T03:14:58;7.00;99.90
8261;DHT22;64115;50.170;8.242;2023-11-21T03:17:25;7.00;99.90
8261;DHT22;64115;50.170;8.242;2023-11-21T03:19:52;7.10;99.90
8261;DHT22;64115;50.170;8.242;2023-11-21T03:22:18;7.10;99.90
8261;DHT22;64115;50.170;8.242;2023-11-21T03:24:45;7.10;99.90
8261;DHT22;64115;50.170;8.242;2023-11-21T03:27:12;7.20;99.90
8261;DHT22;64115;50.170;8.242;2023-11-21T03:29:39;7.20;99.90
8261;DHT22;64115;50.170;8.242;2023-11-21T03:32:07;7.10;99.90
8261;DHT22;64115;50.170;8.242;2023-11-21T03:34:34;7.10;99.90
8261;DHT22;64115;50.170;8.242;2023-11-21T03:37:01;7.10;99.90
8261;DHT22;64115;50.170;8.242;2023-11-21T03:39:28;7.10;99.90
8261;DHT22;64115;50.170;8.242;2023-11-21T03:41:55;7.10;99.90
8261;DHT22;64115;50.170;8.242;2023-11-21T03:44:21;7.10;99.90
8261;DHT22;64115;50.170;8.242;2023-11-21T03:46:48;7.10;99.90
8261;DHT22;64115;50.170;8.242;2023-11-21T03:49:16;7.00;99.90
8261;DHT22;64115;50.170;8.242;2023-11-21T03:51:43;7.00;99.90
8261;DHT22;64115;50.170;8.242;2023-11-21T03:54:09;7.00;99.90
8261;DHT22;64115;50.170;8.242;2023-11-21T03:56:36;6.90;99.90
8261;DHT22;64115;50.170;8.242;2023-11-21T03:59:03;6.90;99.90
8261;DHT22;64115;50.170;8.242;2023-11-21T04:01:29;6.90;99.90
8261;DHT22;64115;50.170;8.242;2023-11-21T04:03:56;6.90;99.90
8261;DHT22;64115;50.170;8.242;2023-11-21T04:06:25;6.90;99.90
8261;DHT22;64115;50.170;8.242;2023-11-21T04:08:52;6.90;99.90
8261;DHT22;64115;50.170;8.242;2023-11-21T04:11:21;6.90;99.90
8261;DHT22;64115;50.170;8.242;2023-11-21T04:13:48;6.90;99.90
8261;DHT22;64115;50.170;8.242;2023-11-21T04:16:15;6.90;99.90
8261;DHT22;64115;50.170;8.242;2023-11-21T04:18:41;6.90;99.90
8261;DHT22;64115;50.170;8.242;2023-11-21T04:21:08;6.90;99.90
8261;DHT22;64115;50.170;8.242;2023-11-21T04:23:36;6.80;99.90
8261;DHT22;64115;50.170;8.242;2023-11-21T04:26:05;6.90;99.90
8261;DHT22;64115;50.170;8.242;2023-11-21T04:28:32;6.90;99.90
8261;DHT22;64115;50.170;8.242;2023-11-21T04:30:58;6.80;99.90
8261;DHT22;64115;50.170;8.242;2023-11-21T04:33:25;6.80;99.90
8261;DHT22;64115;50.170;8.242;2023-11-21T04:35:52;6.90;99.90
8261;DHT22;64115;50.170;8.242;2023-11-21T04:38:19;6.90;99.90
8261;DHT22;64115;50.170;8.242;2023-11-21T04:40:47;6.90;99.90
8261;DHT22;64115;50.170;8.242;2023-11-21T04:43:14;6.80;99.90
8261;DHT22;64115;50.170;8.242;2023-11-21T04:45:41;6.80;99.90
8261;DHT22;64115;50.170;8.242;2023-11-21T04:48:07;6.80;99.90
8261;DHT22;64115;50.170;8.242;2023-11-21T04:50:35;6.80;99.90
8261;DHT22;64115;50.170;8.242;2023-11-21T04:53:02;6.80;99.90
8261;DHT22;64115;50.170;8.242;2023-11-21T04:55:29;6.70;99.90
8261;DHT22;64115;50.170;8.242;2023-11-21T04:57:57;6.70;99.90
8261;DHT22;64115;50.170;8.242;2023-11-21T05:00:23;6.70;99.90
8261;DHT22;64115;50.170;8.242;2023-11-21T05:02:50;6.70;99.90
8261;DHT22;64115;50.170;8.242;2023-11-21T05:05:17;6.70;99.90
8261;DHT22;64115;50.170;8.242;2023-11-21T05:07:44;6.70;99.90
8261;DHT22;64115;50.170;8.242;2023-11-21T05:10:11;6.70;99.90
8261;DHT22;64115;50.170;8.242;2023-11-21T05:12:40;6.70;99.90
8261;DHT22;64115;50.170;8.242;2023-11-21T05:15:09;6.70;99.90
8261;DHT22;64115;50.170;8.242;2023-11-21T05:17:37;6.70;99.90
8261;DHT22;64115;50.170;8.242;2023-11-21T05:20:05;6.60;99.90
8261;DHT22;64115;50.170;8.242;2023-11-21T05:22:34;6.60;99.90
8261;DHT22;64115;50.170;8.242;2023-11-21T05:25:01;6.60;99.90
8261;DHT22;64115;50.170;8.242;2023-11-21T05:27:29;6.60;99.90
8261;DHT22;64115;50.170;8.242;2023-11-21T05:29:56;6.70;99.90
8261;DHT22;64115;50.170;8.242;2023-11-21T05:32:24;6.70;99.90
8261;DHT22;64115;50.170;8.242;2023-11-21T05:34:52;6.70;99.90
8261;DHT22;64115;50.170;8.242;2023-11-21T05:37:19;6.60;99.90
8261;DHT22;64115;50.170;8.242;2023-11-21T05:39:46;6.70;99.90
8261;DHT22;64115;50.170;8.242;2023-11-21T05:42:13;6.70;99.90
8261;DHT22;64115;50.170;8.242;2023-11-21T05:44:41;6.70;99.90
8261;DHT22;64115;50.170;8.242;2023-11-21T05:47:09;6.70;99.90
8261;DHT22;64115;50.170;8.242;2023-11-21T05:49:37;6.70;99.90
8261;DHT22;64115;50.170;8.242;2023-11-21T05:52:04;6.70;99.90
8261;DHT22;64115;50.170;8.242;2023-11-21T05:54:31;6.70;99.90
8261;DHT22;64115;50.170;8.242;2023-11-21T05:56:59;6.70;99.90
8261;DHT22;64115;50.170;8.242;2023-11-21T05:59:26;6.80;99.90
8261;DHT22;64115;50.170;8.242;2023-11-21T06:01:52;6.80;99.90
8261;DHT22;64115;50.170;8.242;2023-11-21T06:04:19;6.70;99.90
8261;DHT22;64115;50.170;8.242;2023-11-21T06:06:51;6.70;99.90
8261;DHT22;64115;50.170;8.242;2023-11-21T06:09:18;6.70;99.90
8261;DHT22;64115;50.170;8.242;2023-11-21T06:11:44;6.70;99.90
8261;DHT22;64115;50.170;8.242;2023-11-21T06:14:11;6.80;99.90
8261;DHT22;64115;50.170;8.242;2023-11-21T06:16:38;6.80;99.90
8261;DHT22;64115;50.170;8.242;2023-11-21T06:19:05;6.80;99.90
8261;DHT22;64115;50.170;8.242;2023-11-21T06:21:32;6.80;99.90
8261;DHT22;64115;50.170;8.242;2023-11-21T06:24:00;6.80;99.90
8261;DHT22;64115;50.170;8.242;2023-11-21T06:26:27;6.80;99.90
8261;DHT22;64115;50.170;8.242;2023-11-21T06:28:54;6.70;99.90
8261;DHT22;64115;50.170;8.242;2023-11-21T06:31:22;6.70;99.90
8261;DHT22;64115;50.170;8.242;2023-11-21T06:33:49;6.80;99.90
8261;DHT22;64115;50.170;8.242;2023-11-21T06:36:17;6.70;99.90
8261;DHT22;64115;50.170;8.242;2023-11-21T06:38:44;6.70;99.90
8261;DHT22;64115;50.170;8.242;2023-11-21T06:41:13;6.70;99.90
8261;DHT22;64115;50.170;8.242;2023-11-21T06:43:40;6.70;99.90
8261;DHT22;64115;50.170;8.242;2023-11-21T06:46:10;6.70;99.90
8261;DHT22;64115;50.170;8.242;2023-11-21T06:48:38;6.70;99.90
8261;DHT22;64115;50.170;8.242;2023-11-21T06:51:06;6.70;99.90
8261;DHT22;64115;50.170;8.242;2023-11-21T06:53:32;6.70;99.90
8261;DHT22;64115;50.170;8.242;2023-11-21T06:55:59;6.70;99.90
8261;DHT22;64115;50.170;8.242;2023-11-21T06:58:27;6.70;99.90
8261;DHT22;64115;50.170;8.242;2023-11-21T07:00:54;6.70;99.90
8261;DHT22;64115;50.170;8.242;2023-11-21T07:03:21;6.70;99.90
8261;DHT22;64115;50.170;8.242;2023-11-21T07:05:49;6.70;99.90
8261;DHT22;64115;50.170;8.242;2023-11-21T07:08:16;6.70;99.90
8261;DHT22;64115;50.170;8.242;2023-11-21T07:10:42;6.60;99.90
8261;DHT22;64115;50.170;8.242;2023-11-21T07:13:09;6.60;99.90
8261;DHT22;64115;50.170;8.242;2023-11-21T07:15:39;6.70;99.90
8261;DHT22;64115;50.170;8.242;2023-11-21T07:18:06;6.70;99.90
8261;DHT22;64115;50.170;8.242;2023-11-21T07:20:33;6.70;99.90
8261;DHT22;64115;50.170;8.242;2023-11-21T07:23:00;6.70;99.90
8261;DHT22;64115;50.170;8.242;2023-11-21T07:25:27;6.60;99.90
8261;DHT22;64115;50.170;8.242;2023-11-21T07:27:53;6.60;99.90
8261;DHT22;64115;50.170;8.242;2023-11-21T07:30:20;6.70;99.90
8261;DHT22;64115;50.170;8.242;2023-11-21T07:32:49;6.70;99.90
8261;DHT22;64115;50.170;8.242;2023-11-21T07:35:16;6.70;99.90
8261;DHT22;64115;50.170;8.242;2023-11-21T07:37:43;6.70;99.90
8261;DHT22;64115;50.170;8.242;2023-11-21T07:40:10;6.70;99.90
8261;DHT22;64115;50.170;8.242;2023-11-21T07:42:37;6.70;99.90
8261;DHT22;64115;50.170;8.242;2023-11-21T07:45:05;6.80;99.90
8261;DHT22;64115;50.170;8.242;2023-11-21T07:47:33;6.80;99.90
8261;DHT22;64115;50.170;8.242;2023-11-21T07:50:02;6.70;99.90
8261;DHT22;64115;50.170;8.242;2023-11-21T07:52:29;6.80;99.90
8261;DHT22;64115;50.170;8.242;2023-11-21T07:54:56;6.80;99.90
8261;DHT22;64115;50.170;8.242;2023-11-21T07:57:23;6.80;99.90
8261;DHT22;64115;50.170;8.242;2023-11-21T07:59:50;6.80;99.90
8261;DHT22;64115;50.170;8.242;2023-11-21T08:02:19;6.80;99.90
8261;DHT22;64115;50.170;8.242;2023-11-21T08:04:46;6.90;99.90
8261;DHT22;64115;50.170;8.242;2023-11-21T08:07:17;6.90;99.90
8261;DHT22;64115;50.170;8.242;2023-11-21T08:09:43;6.90;99.90
8261;DHT22;64115;50.170;8.242;2023-11-21T08:12:12;7.00;99.90
8261;DHT22;64115;50.170;8.242;2023-11-21T08:14:40;6.90;99.90
8261;DHT22;64115;50.170;8.242;2023-11-21T08:17:07;6.90;99.90
8261;DHT22;64115;50.170;8.242;2023-11-21T08:19:35;6.90;99.90
8261;DHT22;64115;50.170;8.242;2023-11-21T08:22:02;6.90;99.90
8261;DHT22;64115;50.170;8.242;2023-11-21T08:24:31;7.00;99.90
8261;DHT22;64115;50.170;8.242;2023-11-21T08:26:57;7.00;99.90
8261;DHT22;64115;50.170;8.242;2023-11-21T08:29:24;7.10;99.90
8261;DHT22;64115;50.170;8.242;2023-11-21T08:31:52;7.10;99.90
8261;DHT22;64115;50.170;8.242;2023-11-21T08:34:19;7.10;99.90
8261;DHT22;64115;50.170;8.242;2023-11-21T08:36:46;7.10;99.90
8261;DHT22;64115;50.170;8.242;2023-11-21T08:39:12;7.10;99.90
8261;DHT22;64115;50.170;8.242;2023-11-21T08:41:43;7.10;99.90
8261;DHT22;64115;50.170;8.242;2023-11-21T08:44:10;7.10;99.90
8261;DHT22;64115;50.170;8.242;2023-11-21T08:46:37;7.20;99.90
8261;DHT22;64115;50.170;8.242;2023-11-21T08:49:05;7.30;99.90
8261;DHT22;64115;50.170;8.242;2023-11-21T08:51:32;7.30;99.90
8261;DHT22;64115;50.170;8.242;2023-11-21T08:53:58;7.30;99.90
8261;DHT22;64115;50.170;8.242;2023-11-21T08:56:29;7.30;99.90
8261;DHT22;64115;50.170;8.242;2023-11-21T08:58:58;7.40;99.90
8261;DHT22;64115;50.170;8.242;2023-11-21T09:01:26;7.50;99.90
8261;DHT22;64115;50.170;8.242;2023-11-21T09:03:53;7.50;99.90
8261;DHT22;64115;50.170;8.242;2023-11-21T09:06:20;7.50;99.90
8261;DHT22;64115;50.170;8.242;2023-11-21T09:08:46;7.50;99.90
8261;DHT22;64115;50.170;8.242;2023-11-21T09:11:13;7.50;99.90
8261;DHT22;64115;50.170;8.242;2023-11-21T09:13:40;7.50;99.90
8261;DHT22;64115;50.170;8.242;2023-11-21T09:16:08;7.50;99.90
8261;DHT22;64115;50.170;8.242;2023-11-21T09:18:36;7.40;99.90
8261;DHT22;64115;50.170;8.242;2023-11-21T09:21:03;7.40;99.90
8261;DHT22;64115;50.170;8.242;2023-11-21T09:23:30;7.50;99.90
8261;DHT22;64115;50.170;8.242;2023-11-21T09:25:57;7.60;99.90
8261;DHT22;64115;50.170;8.242;2023-11-21T09:28:26;7.50;99.90
8261;DHT22;64115;50.170;8.242;2023-11-21T09:30:53;7.40;99.90
8261;DHT22;64115;50.170;8.242;2023-11-21T09:33:21;7.40;99.90
8261;DHT22;64115;50.170;8.242;2023-11-21T09:35:50;7.50;99.90
8261;DHT22;64115;50.170;8.242;2023-11-21T09:38:18;7.40;99.90
8261;DHT22;64115;50.170;8.242;2023-11-21T09:40:44;7.40;99.90
8261;DHT22;64115;50.170;8.242;2023-11-21T09:43:16;7.40;99.90
8261;DHT22;64115;50.170;8.242;2023-11-21T09:45:46;7.40;99.90
8261;DHT22;64115;50.170;8.242;2023-11-21T09:48:13;7.40;99.90
8261;DHT22;64115;50.170;8.242;2023-11-21T09:50:43;7.40;99.90
8261;DHT22;64115;50.170;8.242;2023-11-21T09:53:13;7.60;99.90
8261;DHT22;64115;50.170;8.242;2023-11-21T09:55:46;7.70;99.90
8261;DHT22;64115;50.170;8.242;2023-11-21T09:58:13;7.80;99.90
8261;DHT22;64115;50.170;8.242;2023-11-21T10:00:41;8.00;99.90
8261;DHT22;64115;50.170;8.242;2023-11-21T10:03:08;8.10;99.90
8261;DHT22;64115;50.170;8.242;2023-11-21T10:05:35;8.30;99.90
8261;DHT22;64115;50.170;8.242;2023-11-21T10:08:06;8.40;99.90
8261;DHT22;64115;50.170;8.242;2023-11-21T10:10:35;8.50;99.90
8261;DHT22;64115;50.170;8.242;2023-11-21T10:13:03;8.50;99.90
8261;DHT22;64115;50.170;8.242;2023-11-21T10:15:33;8.50;99.90
8261;DHT22;64115;50.170;8.242;2023-11-21T10:18:02;8.50;99.90
8261;DHT22;64115;50.170;8.242;2023-11-21T10:20:31;8.60;99.90
8261;DHT22;64115;50.170;8.242;2023-11-21T10:22:59;8.90;99.90
8261;DHT22;64115;50.170;8.242;2023-11-21T10:25:29;8.90;99.90
8261;DHT22;64115;50.170;8.242;2023-11-21T10:27:58;9.00;99.90
8261;DHT22;64115;50.170;8.242;2023-11-21T10:30:28;9.20;99.90
8261;DHT22;64115;50.170;8.242;2023-11-21T10:32:59;9.40;99.90
8261;DHT22;64115;50.170;8.242;2023-11-21T10:35:38;9.60;99.90
8261;DHT22;64115;50.170;8.242;2023-11-21T10:38:06;9.70;99.90
8261;DHT22;64115;50.170;8.242;2023-11-21T10:40:39;9.70;99.90
8261;DHT22;64115;50.170;8.242;2023-11-21T10:43:08;9.40;99.90
8261;DHT22;64115;50.170;8.242;2023-11-21T10:45:36;9.40;99.90
8261;DHT22;64115;50.170;8.242;2023-11-21T10:48:05;9.50;99.90
8261;DHT22;64115;50.170;8.242;2023-11-21T10:50:33;9.50;99.90
8261;DHT22;64115;50.170;8.242;2023-11-21T10:53:02;9.40;99.90
8261;DHT22;64115;50.170;8.242;2023-11-21T10:55:30;9.40;99.90
8261;DHT22;64115;50.170;8.242;2023-11-21T10:58:00;9.50;99.90
8261;DHT22;64115;50.170;8.242;2023-11-21T11:00:29;9.60;99.90
8261;DHT22;64115;50.170;8.242;2023-11-21T11:02:57;9.50;99.90
8261;DHT22;64115;50.170;8.242;2023-11-21T11:05:25;9.60;99.90
8261;DHT22;64115;50.170;8.242;2023-11-21T11:08:04;9.60;99.90
8261;DHT22;64115;50.170;8.242;2023-11-21T11:10:31;9.60;99.90
8261;DHT22;64115;50.170;8.242;2023-11-21T11:12:59;9.60;99.90
8261;DHT22;64115;50.170;8.242;2023-11-21T11:15:27;9.70;99.90
8261;DHT22;64115;50.170;8.242;2023-11-21T11:17:55;9.60;99.90
8261;DHT22;64115;50.170;8.242;2023-11-21T11:20:25;9.60;99.90
8261;DHT22;64115;50.170;8.242;2023-11-21T11:23:15;9.60;99.90
8261;DHT22;64115;50.170;8.242;2023-11-21T11:25:57;9.70;99.90
8261;DHT22;64115;50.170;8.242;2023-11-21T11:28:35;9.50;99.90
8261;DHT22;64115;50.170;8.242;2023-11-21T11:31:13;9.50;99.90
8261;DHT22;64115;50.170;8.242;2023-11-21T11:33:46;9.40;99.90
8261;DHT22;64115;50.170;8.242;2023-11-21T11:36:30;9.10;99.90
8261;DHT22;64115;50.170;8.242;2023-11-21T11:39:00;9.00;99.90
8261;DHT22;64115;50.170;8.242;2023-11-21T11:41:30;9.10;99.90
8261;DHT22;64115;50.170;8.242;2023-11-21T11:44:01;9.00;99.90
8261;DHT22;64115;50.170;8.242;2023-11-21T11:46:41;8.90;99.90
8261;DHT22;64115;50.170;8.242;2023-11-21T11:49:08;8.80;99.90
8261;DHT22;64115;50.170;8.242;2023-11-21T11:51:36;8.80;99.90
8261;DHT22;64115;50.170;8.242;2023-11-21T11:54:04;8.80;99.90
8261;DHT22;64115;50.170;8.242;2023-11-21T11:56:35;8.70;99.90
8261;DHT22;64115;50.170;8.242;2023-11-21T11:59:04;8.70;99.90
8261;DHT22;64115;50.170;8.242;2023-11-21T12:01:35;8.80;99.90
8261;DHT22;64115;50.170;8.242;2023-11-21T12:04:23;8.70;99.90
8261;DHT22;64115;50.170;8.242;2023-11-21T12:06:57;8.80;99.90
8261;DHT22;64115;50.170;8.242;2023-11-21T12:09:28;8.80;99.90
8261;DHT22;64115;50.170;8.242;2023-11-21T12:11:57;8.70;99.90
8261;DHT22;64115;50.170;8.242;2023-11-21T12:14:25;8.60;99.90
8261;DHT22;64115;50.170;8.242;2023-11-21T12:16:52;8.60;99.90
8261;DHT22;64115;50.170;8.242;2023-11-21T12:19:20;8.60;99.90
8261;DHT22;64115;50.170;8.242;2023-11-21T12:21:48;8.60;99.90
8261;DHT22;64115;50.170;8.242;2023-11-21T12:24:16;8.70;99.90
8261;DHT22;64115;50.170;8.242;2023-11-21T12:26:43;8.80;99.90
8261;DHT22;64115;50.170;8.242;2023-11-21T12:29:10;8.80;99.90
8261;DHT22;64115;50.170;8.242;2023-11-21T12:31:39;8.80;99.90
8261;DHT22;64115;50.170;8.242;2023-11-21T12:34:06;8.90;99.90
8261;DHT22;64115;50.170;8.242;2023-11-21T12:36:34;8.90;99.90
8261;DHT22;64115;50.170;8.242;2023-11-21T12:39:02;9.00;99.90
8261;DHT22;64115;50.170;8.242;2023-11-21T12:41:29;8.90;99.90
8261;DHT22;64115;50.170;8.242;2023-11-21T12:43:57;8.90;99.90
8261;DHT22;64115;50.170;8.242;2023-11-21T12:46:24;8.90;99.90
8261;DHT22;64115;50.170;8.242;2023-11-21T12:48:56;8.80;99.90
8261;DHT22;64115;50.170;8.242;2023-11-21T12:51:23;8.80;99.90
8261;DHT22;64115;50.170;8.242;2023-11-21T12:53:50;8.80;99.90
8261;DHT22;64115;50.170;8.242;2023-11-21T12:56:18;8.80;99.90
8261;DHT22;64115;50.170;8.242;2023-11-21T12:58:49;8.70;99.90
8261;DHT22;64115;50.170;8.242;2023-11-21T13:01:16;8.70;99.90
8261;DHT22;64115;50.170;8.242;2023-11-21T13:03:46;8.70;99.90
8261;DHT22;64115;50.170;8.242;2023-11-21T13:06:18;8.80;99.90
8261;DHT22;64115;50.170;8.242;2023-11-21T13:08:45;8.70;99.90
8261;DHT22;64115;50.170;8.242;2023-11-21T13:11:13;8.80;99.90
8261;DHT22;64115;50.170;8.242;2023-11-21T13:13:41;8.90;99.90
8261;DHT22;64115;50.170;8.242;2023-11-21T13:16:09;8.90;99.90
8261;DHT22;64115;50.170;8.242;2023-11-21T13:18:36;8.90;99.90
8261;DHT22;64115;50.170;8.242;2023-11-21T13:21:06;8.80;99.90
8261;DHT22;64115;50.170;8.242;2023-11-21T13:23:40;8.90;99.90
8261;DHT22;64115;50.170;8.242;2023-11-21T13:26:08;8.90;99.90
8261;DHT22;64115;50.170;8.242;2023-11-21T13:28:35;9.00;99.90
8261;DHT22;64115;50.170;8.242;2023-11-21T13:31:04;9.00;99.90
8261;DHT22;64115;50.170;8.242;2023-11-21T13:33:46;8.90;99.90
8261;DHT22;64115;50.170;8.242;2023-11-21T13:36:16;8.80;99.90
8261;DHT22;64115;50.170;8.242;2023-11-21T13:38:49;8.70;99.90
8261;DHT22;64115;50.170;8.242;2023-11-21T13:41:18;8.70;99.90
8261;DHT22;64115;50.170;8.242;2023-11-21T13:43:45;8.70;99.90
8261;DHT22;64115;50.170;8.242;2023-11-21T13:46:18;8.60;99.90
8261;DHT22;64115;50.170;8.242;2023-11-21T13:48:47;8.50;99.90
8261;DHT22;64115;50.170;8.242;2023-11-21T13:51:16;8.50;99.90
8261;DHT22;64115;50.170;8.242;2023-11-21T13:53:43;8.50;99.90
8261;DHT22;64115;50.170;8.242;2023-11-21T13:56:14;8.40;99.90
8261;DHT22;64115;50.170;8.242;2023-11-21T13:58:45;8.40;99.90
8261;DHT22;64115;50.170;8.242;2023-11-21T14:01:16;8.40;99.90
8261;DHT22;64115;50.170;8.242;2023-11-21T14:04:07;8.40;99.90
8261;DHT22;64115;50.170;8.242;2023-11-21T14:06:46;8.40;99.90
8261;DHT22;64115;50.170;8.242;2023-11-21T14:09:14;8.40;99.90
8261;DHT22;64115;50.170;8.242;2023-11-21T14:11:50;8.40;99.90
8261;DHT22;64115;50.170;8.242;2023-11-21T14:14:18;8.40;99.90
8261;DHT22;64115;50.170;8.242;2023-11-21T14:16:45;8.40;99.90
8261;DHT22;64115;50.170;8.242;2023-11-21T14:19:12;8.40;99.90
8261;DHT22;64115;50.170;8.242;2023-11-21T14:21:42;8.40;99.90
8261;DHT22;64115;50.170;8.242;2023-11-21T14:24:09;8.40;99.90
8261;DHT22;64115;50.170;8.242;2023-11-21T14:26:39;8.40;99.90
8261;DHT22;64115;50.170;8.242;2023-11-21T14:29:07;8.30;99.90
8261;DHT22;64115;50.170;8.242;2023-11-21T14:31:36;8.40;99.90
8261;DHT22;64115;50.170;8.242;2023-11-21T14:34:03;8.30;99.90
8261;DHT22;64115;50.170;8.242;2023-11-21T14:36:32;8.30;99.90
8261;DHT22;64115;50.170;8.242;2023-11-21T14:38:59;8.20;99.90
8261;DHT22;64115;50.170;8.242;2023-11-21T14:41:26;8.20;99.90
8261;DHT22;64115;50.170;8.242;2023-11-21T14:43:53;8.20;99.90
8261;DHT22;64115;50.170;8.242;2023-11-21T14:46:22;8.10;99.90
8261;DHT22;64115;50.170;8.242;2023-11-21T14:48:49;8.20;99.90
8261;DHT22;64115;50.170;8.242;2023-11-21T14:51:24;8.10;99.90
8261;DHT22;64115;50.170;8.242;2023-11-21T14:53:56;8.10;99.90
8261;DHT22;64115;50.170;8.242;2023-11-21T14:56:26;8.00;99.90
8261;DHT22;64115;50.170;8.242;2023-11-21T14:58:56;8.00;99.90
8261;DHT22;64115;50.170;8.242;2023-11-21T15:01:25;8.00;99.90
8261;DHT22;64115;50.170;8.242;2023-11-21T15:04:08;8.00;99.90
8261;DHT22;64115;50.170;8.242;2023-11-21T15:06:40;8.00;99.90
8261;DHT22;64115;50.170;8.242;2023-11-21T15:09:08;7.90;99.90
8261;DHT22;64115;50.170;8.242;2023-11-21T15:12:01;7.90;99.90
8261;DHT22;64115;50.170;8.242;2023-11-21T15:14:37;7.80;99.90
8261;DHT22;64115;50.170;8.242;2023-11-21T15:17:05;7.80;99.90
8261;DHT22;64115;50.170;8.242;2023-11-21T15:19:33;7.80;99.90
8261;DHT22;64115;50.170;8.242;2023-11-21T15:22:01;7.70;99.90
8261;DHT22;64115;50.170;8.242;2023-11-21T15:24:28;7.70;99.90
8261;DHT22;64115;50.170;8.242;2023-11-21T15:26:55;7.70;99.90
8261;DHT22;64115;50.170;8.242;2023-11-21T15:29:22;7.70;99.90
8261;DHT22;64115;50.170;8.242;2023-11-21T15:31:49;7.70;99.90
8261;DHT22;64115;50.170;8.242;2023-11-21T15:34:23;7.70;99.90
8261;DHT22;64115;50.170;8.242;2023-11-21T15:36:51;7.70;99.90
8261;DHT22;64115;50.170;8.242;2023-11-21T15:39:20;7.70;99.90
8261;DHT22;64115;50.170;8.242;2023-11-21T15:41:49;7.70;99.90
8261;DHT22;64115;50.170;8.242;2023-11-21T15:44:16;7.60;99.90
8261;DHT22;64115;50.170;8.242;2023-11-21T15:46:43;7.60;99.90
8261;DHT22;64115;50.170;8.242;2023-11-21T15:49:10;7.60;99.90
8261;DHT22;64115;50.170;8.242;2023-11-21T15:51:43;7.60;99.90
8261;DHT22;64115;50.170;8.242;2023-11-21T15:54:12;7.60;99.90
8261;DHT22;64115;50.170;8.242;2023-11-21T15:56:39;7.50;99.90
8261;DHT22;64115;50.170;8.242;2023-11-21T15:59:06;7.60;99.90
8261;DHT22;64115;50.170;8.242;2023-11-21T16:01:33;7.50;99.90
8261;DHT22;64115;50.170;8.242;2023-11-21T16:04:00;7.50;99.90
8261;DHT22;64115;50.170;8.242;2023-11-21T16:06:28;7.50;99.90
8261;DHT22;64115;50.170;8.242;2023-11-21T16:08:57;7.50;99.90